Time;durP1;ratioP1;P1;durP2;ratioP2;P2;SDS_P1;SDS_P2;PMS_P1;PMS_P2;Temp;Humidity;BMP_temperature;BMP_pressure;BME280_temperature;BME280_humidity;BME280_pressure;Samples;Min_cycle;Max_cycle;Signal;HPM_P1;HPM_P2
2022/08/19 00:01:46;;;;;;;10.88;10.27;;;;;;;;;;5027001;28;20501;-93
2022/08/19 00:04:13;;;;;;;10.68;10.07;;;;;;;;;;5014140;28;20408;-93
2022/08/19 00:06:40;;;;;;;11.40;10.50;;;;;;;;;;5012651;28;21118;-93
2022/08/19 00:09:07;;;;;;;10.32;9.60;;;;;;;;;;5031672;28;20398;-94
2022/08/19 00:11:35;;;;;;;10.30;9.70;;;;;;;;;;5018479;28;20478;-88
2022/08/19 00:14:01;;;;;;;11.30;10.50;;;;;;;;;;5001293;28;20396;-89
2022/08/19 00:16:28;;;;;;;11.27;10.48;;;;;;;;;;5013730;28;20504;-88
2022/08/19 00:18:55;;;;;;;11.32;10.57;;;;;;;;;;5026978;28;20403;-88
2022/08/19 00:21:21;;;;;;;10.85;10.05;;;;;;;;;;4991399;28;20439;-88
2022/08/19 00:23:47;;;;;;;11.20;10.60;;;;;;;;;;5007563;28;20419;-89
2022/08/19 00:26:13;;;;;;;10.85;10.15;;;;;;;;;;5029046;28;20442;-89
2022/08/19 00:28:39;;;;;;;11.30;10.70;;;;;;;;;;5022134;28;20401;-89
2022/08/19 00:31:06;;;;;;;11.87;11.07;;;;;;;;;;4997627;28;20408;-88
2022/08/19 00:33:33;;;;;;;11.50;10.80;;;;;;;;;;5006711;28;20418;-89
2022/08/19 00:36:00;;;;;;;11.68;10.88;;;;;;;;;;5018627;28;20478;-88
2022/08/19 00:38:27;;;;;;;11.38;10.68;;;;;;;;;;5012727;28;20391;-89
2022/08/19 00:40:53;;;;;;;11.30;10.60;;;;;;;;;;4996730;28;20429;-87
2022/08/19 00:43:20;;;;;;;11.50;10.90;;;;;;;;;;5028530;28;20469;-89
2022/08/19 00:45:47;;;;;;;11.90;11.23;;;;;;;;;;5018879;28;20392;-88
2022/08/19 00:48:13;;;;;;;12.43;11.63;;;;;;;;;;5006871;28;20415;-89
2022/08/19 00:50:42;;;;;;;12.30;11.50;;;;;;;;;;5014376;28;20457;-88
2022/08/19 00:53:10;;;;;;;11.63;10.93;;;;;;;;;;5039420;28;20673;-88
2022/08/19 00:55:36;;;;;;;12.07;11.10;;;;;;;;;;5007599;28;20407;-87
2022/08/19 00:58:04;;;;;;;11.90;11.20;;;;;;;;;;5006021;28;20387;-88
2022/08/19 01:00:31;;;;;;;12.20;11.40;;;;;;;;;;5005406;28;20411;-88
2022/08/19 01:02:57;;;;;;;13.00;11.82;;;;;;;;;;5006795;28;21002;-88
2022/08/19 01:05:27;;;;;;;12.90;12.10;;;;;;;;;;4997466;28;20412;-88
2022/08/19 01:07:53;;;;;;;13.67;12.57;;;;;;;;;;4990728;28;20895;-89
2022/08/19 01:10:22;;;;;;;13.32;12.32;;;;;;;;;;4998249;28;20399;-89
2022/08/19 01:12:49;;;;;;;13.13;12.23;;;;;;;;;;5026982;28;20490;-88
2022/08/19 01:15:17;;;;;;;17.13;15.82;;;;;;;;;;5021056;28;20484;-89
2022/08/19 01:17:45;;;;;;;15.40;14.30;;;;;;;;;;4998617;28;20387;-89
2022/08/19 01:20:13;;;;;;;15.77;14.68;;;;;;;;;;5030994;28;20429;-89
2022/08/19 01:22:43;;;;;;;14.70;13.50;;;;;;;;;;5027179;28;20434;-89
2022/08/19 01:25:09;;;;;;;14.77;13.75;;;;;;;;;;4981535;28;20767;-88
2022/08/19 01:27:40;;;;;;;15.82;14.63;;;;;;;;;;4982593;28;20408;-88
2022/08/19 01:30:08;;;;;;;13.90;12.80;;;;;;;;;;4981909;28;20406;-88
2022/08/19 01:32:34;;;;;;;13.75;12.85;;;;;;;;;;4987334;28;20483;-89
2022/08/19 01:35:02;;;;;;;13.50;12.60;;;;;;;;;;4982656;28;20770;-89
2022/08/19 01:37:28;;;;;;;13.45;12.65;;;;;;;;;;4990139;28;20400;-88
2022/08/19 01:39:54;;;;;;;12.85;12.05;;;;;;;;;;4982016;28;20481;-89
2022/08/19 01:42:21;;;;;;;13.40;12.40;;;;;;;;;;5006639;28;20408;-88
2022/08/19 01:44:48;;;;;;;15.00;14.00;;;;;;;;;;5010596;28;20575;-88
2022/08/19 01:47:15;;;;;;;14.57;13.48;;;;;;;;;;4987855;28;20395;-88
2022/08/19 01:49:41;;;;;;;15.80;14.40;;;;;;;;;;4970498;28;20487;-88
2022/08/19 01:52:07;;;;;;;14.23;13.13;;;;;;;;;;4988594;28;20899;-88
2022/08/19 01:54:33;;;;;;;13.20;12.20;;;;;;;;;;4986418;28;20459;-88
2022/08/19 01:57:11;;;;;;;12.70;11.80;;;;;;;;;;4987581;28;20411;-87
2022/08/19 01:59:37;;;;;;;12.30;11.60;;;;;;;;;;5001275;28;20400;-89
2022/08/19 02:02:07;;;;;;;12.20;11.30;;;;;;;;;;4982120;28;20410;-88
2022/08/19 02:04:33;;;;;;;12.57;11.68;;;;;;;;;;4981974;28;20919;-88
2022/08/19 02:06:59;;;;;;;12.65;11.85;;;;;;;;;;4991022;28;20467;-88
2022/08/19 02:09:25;;;;;;;12.05;11.35;;;;;;;;;;4980984;28;20803;-89
2022/08/19 02:11:51;;;;;;;13.00;12.10;;;;;;;;;;5003440;28;20415;-88
2022/08/19 02:14:17;;;;;;;11.80;11.10;;;;;;;;;;4983167;28;20399;-89
2022/08/19 02:16:43;;;;;;;12.70;11.80;;;;;;;;;;4978369;28;20404;-89
2022/08/19 02:19:10;;;;;;;13.30;12.30;;;;;;;;;;4981210;28;20437;-90
2022/08/19 02:21:36;;;;;;;13.50;12.40;;;;;;;;;;4997376;28;20425;-96
2022/08/19 02:24:02;;;;;;;13.02;12.13;;;;;;;;;;4996346;28;20409;-94
2022/08/19 02:26:39;;;;;;;12.60;11.60;;;;;;;;;;5029200;28;20389;-96
2022/08/19 02:29:13;;;;;;;12.02;11.30;;;;;;;;;;5014720;28;20395;-96
2022/08/19 02:31:45;;;;;;;12.15;11.35;;;;;;;;;;5000071;28;20408;-95
2022/08/19 02:34:15;;;;;;;12.60;11.70;;;;;;;;;;4996783;28;20450;-95
2022/08/19 02:36:41;;;;;;;12.10;11.30;;;;;;;;;;4997425;28;20466;-96
2022/08/19 02:39:07;;;;;;;13.00;12.00;;;;;;;;;;4997536;28;20461;-95
2022/08/19 02:41:37;;;;;;;13.20;12.20;;;;;;;;;;5034572;28;20469;-95
2022/08/19 02:44:04;;;;;;;13.25;12.25;;;;;;;;;;4998578;28;20442;-95
2022/08/19 02:46:31;;;;;;;13.90;12.98;;;;;;;;;;5035367;28;20614;-95
2022/08/19 02:49:02;;;;;;;12.82;12.02;;;;;;;;;;5019512;28;20414;-95
2022/08/19 02:51:29;;;;;;;12.68;11.88;;;;;;;;;;5015744;28;20397;-95
2022/08/19 02:56:46;;;;;;;13.75;12.85;;;;;;;;;;5024362;28;20401;-95
2022/08/19 02:59:12;;;;;;;13.73;12.73;;;;;;;;;;5021149;28;20393;-94
2022/08/19 03:01:40;;;;;;;13.23;12.27;;;;;;;;;;5010771;28;20438;-95
2022/08/19 03:04:06;;;;;;;13.30;12.40;;;;;;;;;;4995456;28;20414;-95
2022/08/19 03:06:33;;;;;;;12.30;11.40;;;;;;;;;;5011501;28;20389;-95
2022/08/19 03:08:59;;;;;;;12.95;11.55;;;;;;;;;;5018274;28;20408;-94
2022/08/19 03:11:28;;;;;;;12.63;11.85;;;;;;;;;;5011858;28;20441;-94
2022/08/19 03:13:54;;;;;;;12.77;11.88;;;;;;;;;;5025107;28;20388;-94
2022/08/19 03:16:24;;;;;;;12.50;11.80;;;;;;;;;;4996803;28;20416;-95
2022/08/19 03:18:51;;;;;;;13.13;12.02;;;;;;;;;;5015443;28;20397;-94
2022/08/19 03:21:23;;;;;;;12.70;11.82;;;;;;;;;;5012316;28;20429;-93
2022/08/19 03:23:49;;;;;;;12.57;11.77;;;;;;;;;;5011590;28;20504;-95
2022/08/19 03:26:15;;;;;;;13.48;12.48;;;;;;;;;;5010864;28;20463;-93
2022/08/19 03:28:42;;;;;;;13.25;12.25;;;;;;;;;;5011472;28;20427;-96
2022/08/19 03:31:11;;;;;;;14.27;13.18;;;;;;;;;;5011551;28;20457;-95
2022/08/19 03:33:38;;;;;;;13.40;12.50;;;;;;;;;;5014448;28;20389;-92
2022/08/19 03:36:07;;;;;;;14.20;13.25;;;;;;;;;;5011065;28;20468;-95
2022/08/19 03:38:33;;;;;;;15.70;14.50;;;;;;;;;;5013214;28;20405;-96
2022/08/19 03:41:03;;;;;;;15.13;13.82;;;;;;;;;;5014050;28;20400;-95
2022/08/19 03:43:29;;;;;;;16.92;15.35;;;;;;;;;;5013787;28;20384;-95
2022/08/19 03:46:03;;;;;;;15.77;14.68;;;;;;;;;;4992703;28;20394;-95
2022/08/19 03:48:30;;;;;;;15.73;14.52;;;;;;;;;;5030408;28;20393;-96
2022/08/19 03:50:58;;;;;;;16.45;15.15;;;;;;;;;;5012360;28;20461;-95
2022/08/19 03:53:25;;;;;;;15.77;14.63;;;;;;;;;;5012776;28;20393;-94
2022/08/19 03:55:55;;;;;;;16.92;15.52;;;;;;;;;;4994278;28;20406;-94
2022/08/19 03:58:22;;;;;;;17.00;15.88;;;;;;;;;;5027538;28;20397;-95
2022/08/19 04:00:48;;;;;;;15.82;14.63;;;;;;;;;;4993849;28;20400;-88
2022/08/19 04:03:14;;;;;;;16.58;15.27;;;;;;;;;;4989974;28;20393;-87
2022/08/19 04:05:40;;;;;;;17.52;16.13;;;;;;;;;;4983739;28;20424;-87
2022/08/19 04:08:06;;;;;;;18.30;16.80;;;;;;;;;;4983729;28;20558;-87
2022/08/19 04:10:36;;;;;;;17.60;16.10;;;;;;;;;;5004740;28;20405;-92
2022/08/19 04:13:11;;;;;;;17.08;15.68;;;;;;;;;;5004794;28;20412;-93
2022/08/19 04:15:46;;;;;;;16.40;15.20;;;;;;;;;;4988717;28;20407;-92
2022/08/19 04:18:13;;;;;;;16.80;15.50;;;;;;;;;;4997092;28;20381;-93
2022/08/19 04:20:40;;;;;;;16.77;15.43;;;;;;;;;;5006126;28;20421;-94
2022/08/19 04:23:06;;;;;;;17.70;16.20;;;;;;;;;;4993469;28;20433;-90
2022/08/19 04:25:40;;;;;;;16.63;15.32;;;;;;;;;;4998253;28;20388;-93
2022/08/19 04:28:22;;;;;;;17.20;15.90;;;;;;;;;;4991863;28;20887;-93
2022/08/19 04:30:49;;;;;;;17.20;15.80;;;;;;;;;;5000555;28;20380;-89
2022/08/19 04:33:17;;;;;;;16.30;15.00;;;;;;;;;;4995325;28;20917;-94
2022/08/19 04:35:45;;;;;;;17.83;15.98;;;;;;;;;;4999228;28;20396;-94
2022/08/19 04:38:13;;;;;;;16.25;14.85;;;;;;;;;;4987924;28;20425;-93
2022/08/19 04:43:25;;;;;;;15.75;14.65;;;;;;;;;;5005656;28;20441;-92
2022/08/19 04:45:51;;;;;;;17.17;15.77;;;;;;;;;;5000908;28;20397;-91
2022/08/19 04:48:37;;;;;;;17.00;15.30;;;;;;;;;;5003255;28;20464;-94
2022/08/19 04:51:07;;;;;;;18.58;17.17;;;;;;;;;;4987911;28;20392;-94
2022/08/19 04:53:33;;;;;;;15.40;14.30;;;;;;;;;;4985897;28;20429;-94
2022/08/19 04:56:01;;;;;;;17.10;15.60;;;;;;;;;;4988626;28;20765;-93
2022/08/19 04:58:28;;;;;;;15.40;14.27;;;;;;;;;;5003801;28;20486;-94
2022/08/19 05:00:54;;;;;;;16.80;15.60;;;;;;;;;;4995498;28;21093;-93
2022/08/19 05:03:23;;;;;;;16.77;15.32;;;;;;;;;;4999469;28;20407;-93
2022/08/19 05:05:49;;;;;;;16.57;15.27;;;;;;;;;;4991834;28;20409;-94
2022/08/19 05:08:19;;;;;;;17.92;16.35;;;;;;;;;;4998478;28;20526;-94
2022/08/19 05:10:47;;;;;;;18.00;16.30;;;;;;;;;;4997862;28;20404;-94
2022/08/19 05:13:32;;;;;;;18.02;16.52;;;;;;;;;;5000904;28;20403;-93
2022/08/19 05:15:59;;;;;;;17.80;16.30;;;;;;;;;;5004940;28;20392;-92
2022/08/19 05:23:58;;;;;;;16.70;15.40;;;;;;;;;;5005818;28;20967;-94
2022/08/19 05:26:29;;;;;;;17.00;15.80;;;;;;;;;;5009281;28;20387;-91
2022/08/19 05:28:57;;;;;;;17.65;16.15;;;;;;;;;;5009933;28;20421;-92
2022/08/19 05:31:35;;;;;;;20.40;18.40;;;;;;;;;;5008892;28;20416;-94
2022/08/19 05:34:01;;;;;;;17.20;15.70;;;;;;;;;;5013572;28;20435;-89
2022/08/19 05:36:35;;;;;;;23.35;21.35;;;;;;;;;;5013791;28;20420;-94
2022/08/19 05:39:09;;;;;;;17.95;16.35;;;;;;;;;;4996793;28;20818;-93
2022/08/19 05:41:37;;;;;;;17.83;16.25;;;;;;;;;;5009557;28;20427;-89
2022/08/19 05:44:08;;;;;;;17.13;15.80;;;;;;;;;;5012446;28;20393;-92
2022/08/19 05:52:44;;;;;;;16.95;15.65;;;;;;;;;;4961147;28;20725;-94
2022/08/19 05:55:16;;;;;;;15.82;14.45;;;;;;;;;;4989511;28;20836;-93
2022/08/19 05:57:48;;;;;;;17.17;15.57;;;;;;;;;;4999384;28;20478;-91
2022/08/19 06:00:50;;;;;;;15.70;14.10;;;;;;;;;;4978405;28;20696;-94
2022/08/19 06:03:22;;;;;;;15.33;14.07;;;;;;;;;;4897353;29;20438;-93
2022/08/19 06:05:51;;;;;;;14.82;13.68;;;;;;;;;;4984573;28;20414;-92
2022/08/19 06:08:18;;;;;;;13.00;12.10;;;;;;;;;;4992948;28;20426;-92
2022/08/19 06:10:44;;;;;;;14.25;13.15;;;;;;;;;;4992074;28;20402;-94
2022/08/19 06:13:12;;;;;;;14.00;12.90;;;;;;;;;;4970690;28;20524;-91
2022/08/19 06:15:38;;;;;;;14.52;13.32;;;;;;;;;;4971400;28;20432;-91
2022/08/19 06:18:12;;;;;;;14.17;12.97;;;;;;;;;;4988886;28;20520;-92
2022/08/19 06:23:35;;;;;;;15.05;13.95;;;;;;;;;;5004510;28;20421;-89
2022/08/19 06:26:04;;;;;;;16.83;15.43;;;;;;;;;;4994105;28;20386;-91
2022/08/19 06:39:52;;;;;;;24.43;22.23;;;;;;;;;;5238566;23;20438;-91
2022/08/19 06:47:33;;;;;;;30.27;27.30;;;;;;;;;;5299951;23;20466;-88
2022/08/19 06:50:06;;;;;;;28.73;25.92;;;;;;;;;;4995250;28;20394;-92
2022/08/19 06:52:51;;;;;;;30.05;27.25;;;;;;;;;;5000617;23;20438;-92
2022/08/19 06:55:23;;;;;;;30.10;27.20;;;;;;;;;;5403916;23;20490;-91
2022/08/19 06:57:52;;;;;;;31.58;28.48;;;;;;;;;;5224080;23;20391;-86
2022/08/19 07:03:21;;;;;;;31.23;28.33;;;;;;;;;;5121475;23;21060;-91
2022/08/19 07:05:47;;;;;;;30.67;27.40;;;;;;;;;;4990097;28;20390;-88
2022/08/19 07:08:13;;;;;;;30.17;27.27;;;;;;;;;;4991138;28;20415;-91
2022/08/19 07:10:43;;;;;;;31.05;27.73;;;;;;;;;;5110344;23;20907;-90
2022/08/19 07:13:09;;;;;;;31.80;28.65;;;;;;;;;;5327480;23;20434;-92
2022/08/19 07:15:37;;;;;;;30.43;27.63;;;;;;;;;;5015503;28;20481;-94
2022/08/19 07:18:03;;;;;;;34.80;31.40;;;;;;;;;;5028668;28;20383;-94
2022/08/19 07:20:33;;;;;;;33.15;30.05;;;;;;;;;;5021817;28;20418;-94
2022/08/19 07:22:59;;;;;;;32.33;29.52;;;;;;;;;;5047518;28;20478;-91
2022/08/19 07:25:25;;;;;;;34.00;30.90;;;;;;;;;;5023803;28;20404;-91
2022/08/19 07:27:51;;;;;;;33.70;30.50;;;;;;;;;;5043170;28;20471;-91
2022/08/19 07:30:17;;;;;;;34.40;31.20;;;;;;;;;;5020063;28;20404;-92
2022/08/19 07:32:43;;;;;;;33.65;30.65;;;;;;;;;;5024407;28;20782;-93
2022/08/19 07:35:10;;;;;;;35.50;32.20;;;;;;;;;;5006105;28;20416;-94
2022/08/19 07:37:38;;;;;;;37.30;33.70;;;;;;;;;;5024335;28;20462;-93
2022/08/19 07:40:05;;;;;;;37.40;33.70;;;;;;;;;;5027468;28;20401;-93
2022/08/19 07:42:31;;;;;;;38.50;34.70;;;;;;;;;;5021084;28;20423;-92
2022/08/19 07:44:58;;;;;;;40.40;36.20;;;;;;;;;;5020288;28;20793;-94
2022/08/19 07:47:24;;;;;;;39.63;35.92;;;;;;;;;;5007727;28;20428;-94
2022/08/19 07:49:51;;;;;;;40.67;36.97;;;;;;;;;;5014758;28;20412;-90
2022/08/19 07:52:17;;;;;;;41.80;37.80;;;;;;;;;;5006193;28;20463;-91
2022/08/19 07:54:43;;;;;;;42.70;38.80;;;;;;;;;;5022448;28;20522;-91
2022/08/19 07:57:09;;;;;;;43.57;39.17;;;;;;;;;;4666881;28;10000365;-90
2022/08/19 07:59:36;;;;;;;44.05;39.75;;;;;;;;;;5003571;28;20451;-93
2022/08/19 08:02:02;;;;;;;42.20;38.17;;;;;;;;;;5001058;28;20416;-92
2022/08/19 08:09:59;;;;;;;41.58;37.88;;;;;;;;;;5032015;28;20398;-92
2022/08/19 08:12:28;;;;;;;42.88;38.88;;;;;;;;;;5010831;28;20403;-90
2022/08/19 08:14:56;;;;;;;41.70;38.00;;;;;;;;;;5013318;28;20405;-91
2022/08/19 08:17:23;;;;;;;42.88;38.38;;;;;;;;;;5013274;28;20395;-90
2022/08/19 08:19:50;;;;;;;42.95;38.95;;;;;;;;;;5011596;28;20397;-93
2022/08/19 08:25:07;;;;;;;41.75;38.15;;;;;;;;;;5039659;28;20754;-92
2022/08/19 08:27:36;;;;;;;38.92;35.42;;;;;;;;;;5000063;28;20482;-89
2022/08/19 08:30:06;;;;;;;38.07;34.77;;;;;;;;;;5019460;28;20395;-90
2022/08/19 08:32:32;;;;;;;40.30;36.30;;;;;;;;;;5003062;28;20438;-91
2022/08/19 08:34:58;;;;;;;40.90;37.25;;;;;;;;;;5021271;28;20414;-91
2022/08/19 08:37:24;;;;;;;41.63;38.00;;;;;;;;;;5020387;28;20417;-89
2022/08/19 08:39:50;;;;;;;40.90;37.20;;;;;;;;;;5035038;28;20391;-91
2022/08/19 08:42:32;;;;;;;43.25;39.20;;;;;;;;;;4996068;28;20850;-90
2022/08/19 08:45:01;;;;;;;42.85;39.05;;;;;;;;;;4998335;28;20429;-91
2022/08/19 08:47:29;;;;;;;41.72;38.13;;;;;;;;;;5008361;28;20392;-89
2022/08/19 08:50:01;;;;;;;42.47;38.78;;;;;;;;;;5014153;28;20376;-90
2022/08/19 08:52:35;;;;;;;38.33;35.20;;;;;;;;;;5010570;28;20384;-90
2022/08/19 08:55:05;;;;;;;36.45;33.40;;;;;;;;;;5013478;28;20376;-91
2022/08/19 08:57:35;;;;;;;36.63;33.53;;;;;;;;;;5005226;28;20398;-88
2022/08/19 09:00:10;;;;;;;33.95;30.95;;;;;;;;;;5025453;28;20980;-85
2022/08/19 09:02:36;;;;;;;30.13;27.70;;;;;;;;;;5095418;23;20427;-89
2022/08/19 09:05:03;;;;;;;30.52;27.80;;;;;;;;;;5018570;28;20424;-92
2022/08/19 09:07:47;;;;;;;30.10;27.50;;;;;;;;;;5031493;28;20474;-91
2022/08/19 09:10:43;;;;;;;31.02;28.52;;;;;;;;;;5032177;28;20769;-88
2022/08/19 09:13:28;;;;;;;27.70;25.40;;;;;;;;;;5012845;28;20477;-92
2022/08/19 09:16:12;;;;;;;34.42;26.08;;;;;;;;;;5028837;28;20591;-90
2022/08/19 09:18:40;;;;;;;23.60;21.40;;;;;;;;;;4678489;28;10001171;-90
2022/08/19 09:21:14;;;;;;;25.50;23.20;;;;;;;;;;5029880;28;20469;-89
2022/08/19 09:23:40;;;;;;;22.58;20.83;;;;;;;;;;5032141;28;20506;-89
2022/08/19 09:26:08;;;;;;;21.92;20.23;;;;;;;;;;5017635;28;20407;-90
2022/08/19 09:28:34;;;;;;;19.20;17.70;;;;;;;;;;5016873;28;20395;-89
2022/08/19 09:31:00;;;;;;;21.50;19.80;;;;;;;;;;5018201;28;20443;-90
2022/08/19 09:33:26;;;;;;;20.30;18.70;;;;;;;;;;5036174;28;20402;-90
2022/08/19 09:36:03;;;;;;;19.15;17.55;;;;;;;;;;5018693;28;20494;-88
2022/08/19 09:38:29;;;;;;;18.02;16.55;;;;;;;;;;5010869;28;20490;-88
2022/08/19 09:40:55;;;;;;;18.80;17.20;;;;;;;;;;5013037;28;20918;-86
2022/08/19 09:43:21;;;;;;;16.80;15.60;;;;;;;;;;5010357;28;20496;-87
2022/08/19 09:45:47;;;;;;;18.77;17.17;;;;;;;;;;5014221;28;20545;-88
2022/08/19 09:48:18;;;;;;;17.80;16.40;;;;;;;;;;5013736;28;20407;-88
2022/08/19 09:50:47;;;;;;;16.77;15.63;;;;;;;;;;5014942;28;20541;-88
2022/08/19 09:53:18;;;;;;;15.68;14.68;;;;;;;;;;5011330;28;21190;-88
2022/08/19 09:55:44;;;;;;;14.60;13.60;;;;;;;;;;5032808;28;20407;-88
2022/08/19 09:58:13;;;;;;;14.15;13.25;;;;;;;;;;5015160;28;20506;-88
2022/08/19 10:00:42;;;;;;;15.95;14.65;;;;;;;;;;5026747;28;20397;-87
2022/08/19 10:03:08;;;;;;;15.10;14.00;;;;;;;;;;5032931;28;20427;-87
2022/08/19 10:05:50;;;;;;;16.83;15.70;;;;;;;;;;5016504;28;20474;-87
2022/08/19 10:08:20;;;;;;;17.40;16.20;;;;;;;;;;5007566;28;20388;-87
2022/08/19 10:10:47;;;;;;;17.90;16.52;;;;;;;;;;5017499;28;20399;-88
2022/08/19 10:13:18;;;;;;;18.83;17.33;;;;;;;;;;5009766;28;20402;-87
2022/08/19 10:15:44;;;;;;;17.42;16.13;;;;;;;;;;5027637;28;20414;-88
2022/08/19 10:18:26;;;;;;;18.60;17.30;;;;;;;;;;5018574;28;20411;-88
2022/08/19 10:21:09;;;;;;;19.20;17.70;;;;;;;;;;5029228;28;20407;-89
2022/08/19 10:23:44;;;;;;;19.73;18.13;;;;;;;;;;5007893;28;20436;-90
2022/08/19 10:26:10;;;;;;;20.45;18.77;;;;;;;;;;5013015;28;20440;-92
2022/08/19 10:28:37;;;;;;;23.15;21.45;;;;;;;;;;5048015;28;20391;-90
2022/08/19 10:31:07;;;;;;;25.73;23.52;;;;;;;;;;5034156;28;20399;-90
2022/08/19 10:33:33;;;;;;;23.63;21.73;;;;;;;;;;5049999;28;20438;-90
2022/08/19 10:36:00;;;;;;;26.20;24.10;;;;;;;;;;5050054;28;20417;-91
2022/08/19 10:38:26;;;;;;;22.30;20.70;;;;;;;;;;5031745;28;20187;-92
2022/08/19 10:40:52;;;;;;;21.13;19.70;;;;;;;;;;5028029;28;20427;-91
2022/08/19 10:43:18;;;;;;;25.60;23.60;;;;;;;;;;5018265;28;20482;-91
2022/08/19 10:45:49;;;;;;;24.10;22.17;;;;;;;;;;5023722;28;20452;-91
2022/08/19 10:48:15;;;;;;;24.63;22.70;;;;;;;;;;5014749;28;20435;-92
2022/08/19 10:53:25;;;;;;;20.77;19.13;;;;;;;;;;5031786;28;20465;-92
2022/08/19 10:58:36;;;;;;;19.03;17.63;;;;;;;;;;5029529;28;20959;-92
2022/08/19 11:01:02;;;;;;;23.47;21.67;;;;;;;;;;5028767;28;20427;-92
2022/08/19 11:03:30;;;;;;;22.97;21.17;;;;;;;;;;5036678;28;20578;-90
2022/08/19 11:06:00;;;;;;;22.27;20.43;;;;;;;;;;5027440;28;20440;-91
2022/08/19 11:08:26;;;;;;;25.00;23.20;;;;;;;;;;5034669;28;20413;-90
2022/08/19 11:10:56;;;;;;;25.47;23.37;;;;;;;;;;5034046;28;20411;-91
2022/08/19 11:13:23;;;;;;;48.42;43.63;;;;;;;;;;5029391;28;20411;-90
2022/08/19 11:15:56;;;;;;;22.30;20.40;;;;;;;;;;5018791;28;20168;-88
2022/08/19 11:18:22;;;;;;;20.70;19.30;;;;;;;;;;5013959;28;20470;-89
2022/08/19 11:20:49;;;;;;;19.13;17.77;;;;;;;;;;5015751;28;20494;-89
2022/08/19 11:23:15;;;;;;;20.07;18.57;;;;;;;;;;5008029;28;20922;-89
2022/08/19 11:25:41;;;;;;;18.80;17.53;;;;;;;;;;5006647;28;20759;-88
2022/08/19 11:28:07;;;;;;;18.90;17.50;;;;;;;;;;5017086;28;20438;-88
2022/08/19 11:30:33;;;;;;;20.00;18.70;;;;;;;;;;5019435;28;20421;-89
2022/08/19 11:33:00;;;;;;;19.87;18.57;;;;;;;;;;5021018;28;20598;-89
2022/08/19 11:35:27;;;;;;;18.53;17.23;;;;;;;;;;5019397;28;20438;-89
2022/08/19 11:37:54;;;;;;;20.70;18.80;;;;;;;;;;5019886;28;20422;-89
2022/08/19 11:40:20;;;;;;;18.77;17.43;;;;;;;;;;5018623;28;20529;-88
2022/08/19 11:42:55;;;;;;;17.10;15.70;;;;;;;;;;5020178;28;20928;-88
2022/08/19 11:45:21;;;;;;;19.17;17.67;;;;;;;;;;5021449;28;20430;-90
2022/08/19 11:47:47;;;;;;;18.37;17.03;;;;;;;;;;5016383;28;20994;-89
2022/08/19 11:50:14;;;;;;;17.33;16.13;;;;;;;;;;5020049;28;20870;-89
2022/08/19 11:52:44;;;;;;;17.00;15.67;;;;;;;;;;5014568;28;20443;-89
2022/08/19 11:55:10;;;;;;;14.60;13.60;;;;;;;;;;5014346;28;20426;-89
2022/08/19 11:57:36;;;;;;;15.13;13.90;;;;;;;;;;5045379;28;20427;-89
2022/08/19 12:00:04;;;;;;;15.27;14.17;;;;;;;;;;5015088;28;20491;-90
2022/08/19 12:02:30;;;;;;;13.90;13.20;;;;;;;;;;5013652;28;20930;-88
2022/08/19 12:04:56;;;;;;;13.20;12.37;;;;;;;;;;5000050;28;20443;-89
2022/08/19 12:07:22;;;;;;;13.50;12.65;;;;;;;;;;5011590;28;21080;-90
2022/08/19 12:09:51;;;;;;;12.73;11.83;;;;;;;;;;5008943;28;20775;-93
2022/08/19 12:12:21;;;;;;;14.57;13.67;;;;;;;;;;5024615;28;20865;-93
2022/08/19 12:14:47;;;;;;;12.27;11.40;;;;;;;;;;5025104;28;20500;-90
2022/08/19 12:17:13;;;;;;;10.70;10.20;;;;;;;;;;5006514;28;20428;-90
2022/08/19 12:19:39;;;;;;;10.33;9.83;;;;;;;;;;5029147;28;20442;-88
2022/08/19 12:22:07;;;;;;;9.00;8.60;;;;;;;;;;5013572;28;20475;-90
2022/08/19 12:24:33;;;;;;;9.43;8.83;;;;;;;;;;5029535;28;20457;-91
2022/08/19 12:27:01;;;;;;;9.53;8.93;;;;;;;;;;5027494;28;20509;-91
2022/08/19 12:29:29;;;;;;;10.50;9.80;;;;;;;;;;5024084;28;20453;-90
2022/08/19 12:32:00;;;;;;;10.77;10.20;;;;;;;;;;5029013;28;20561;-91
2022/08/19 12:34:29;;;;;;;10.10;9.50;;;;;;;;;;5007994;28;20433;-91
2022/08/19 12:36:55;;;;;;;10.43;9.83;;;;;;;;;;5013653;28;20419;-90
2022/08/19 12:39:21;;;;;;;8.93;8.53;;;;;;;;;;4685284;28;10000255;-91
2022/08/19 12:41:48;;;;;;;10.70;10.10;;;;;;;;;;5028546;28;20223;-93
2022/08/19 12:44:14;;;;;;;10.83;9.90;;;;;;;;;;5040180;28;21058;-91
2022/08/19 12:46:41;;;;;;;10.00;9.37;;;;;;;;;;5026453;28;20438;-91
2022/08/19 12:49:07;;;;;;;10.63;9.73;;;;;;;;;;5012841;28;20535;-92
2022/08/19 12:51:33;;;;;;;9.93;9.33;;;;;;;;;;5044227;28;20435;-90
2022/08/19 12:53:59;;;;;;;8.60;8.20;;;;;;;;;;5025887;28;20473;-91
2022/08/19 12:56:31;;;;;;;8.63;8.23;;;;;;;;;;5024153;28;20433;-90
2022/08/19 12:58:57;;;;;;;9.43;8.70;;;;;;;;;;5020659;28;20451;-92
2022/08/19 13:01:23;;;;;;;8.40;8.10;;;;;;;;;;5019851;28;20427;-91
2022/08/19 13:03:51;;;;;;;7.70;7.37;;;;;;;;;;5024782;28;20432;-91
2022/08/19 13:06:17;;;;;;;7.23;6.93;;;;;;;;;;5026202;28;20435;-92
2022/08/19 13:08:47;;;;;;;9.20;8.37;;;;;;;;;;5027652;28;20494;-91
2022/08/19 13:11:14;;;;;;;8.70;8.10;;;;;;;;;;5027414;28;20457;-89
2022/08/19 13:13:41;;;;;;;9.93;8.87;;;;;;;;;;5021387;28;20470;-92
2022/08/19 13:16:09;;;;;;;11.03;10.20;;;;;;;;;;5028180;28;20414;-90
2022/08/19 13:18:35;;;;;;;8.83;8.43;;;;;;;;;;5024974;28;20423;-90
2022/08/19 13:21:05;;;;;;;8.70;8.23;;;;;;;;;;5028341;28;20438;-92
2022/08/19 13:23:32;;;;;;;9.17;8.73;;;;;;;;;;5013454;28;20462;-89
2022/08/19 13:25:59;;;;;;;8.17;7.70;;;;;;;;;;5045882;28;20576;-90
2022/08/19 13:33:10;;;;;;;9.13;8.47;;;;;;;;;;5014560;28;20450;-93
2022/08/19 13:34:03;;;;;;;7.80;7.13;;;;;;;;;;5033250;28;20446;-89
2022/08/19 13:36:29;;;;;;;6.87;6.60;;;;;;;;;;5025427;28;20426;-92
2022/08/19 13:38:56;;;;;;;7.33;7.03;;;;;;;;;;5025221;28;20434;-92
2022/08/19 13:41:22;;;;;;;6.57;6.27;;;;;;;;;;5024458;28;20606;-90
2022/08/19 13:43:48;;;;;;;7.20;6.90;;;;;;;;;;5025326;28;20524;-89
2022/08/19 13:46:15;;;;;;;6.73;6.53;;;;;;;;;;5028782;28;20453;-90
2022/08/19 13:48:42;;;;;;;7.40;6.90;;;;;;;;;;5020649;28;20439;-87
2022/08/19 13:51:09;;;;;;;7.67;7.37;;;;;;;;;;5022118;28;20391;-91
2022/08/19 13:53:37;;;;;;;7.63;7.30;;;;;;;;;;5023324;28;20465;-91
2022/08/19 13:56:06;;;;;;;9.33;6.97;;;;;;;;;;5008745;28;20443;-89
2022/08/19 13:58:32;;;;;;;7.53;7.13;;;;;;;;;;5038647;28;20439;-92
2022/08/19 14:00:59;;;;;;;7.03;6.67;;;;;;;;;;5014911;28;20729;-89
2022/08/19 14:03:25;;;;;;;6.90;6.50;;;;;;;;;;5026323;28;20455;-89
2022/08/19 14:05:51;;;;;;;6.10;5.80;;;;;;;;;;5009978;28;20458;-91
2022/08/19 14:08:20;;;;;;;5.50;5.40;;;;;;;;;;5022643;28;20438;-89
2022/08/19 14:10:46;;;;;;;5.60;5.40;;;;;;;;;;5019620;28;20566;-91
2022/08/19 14:13:15;;;;;;;5.70;5.50;;;;;;;;;;5021899;28;20453;-87
2022/08/19 14:15:41;;;;;;;6.27;5.90;;;;;;;;;;5016680;28;20408;-91
2022/08/19 14:18:10;;;;;;;6.13;5.82;;;;;;;;;;5026374;28;20405;-93
2022/08/19 14:20:37;;;;;;;6.10;5.90;;;;;;;;;;5024205;28;20191;-86
2022/08/19 14:23:05;;;;;;;5.77;5.57;;;;;;;;;;5025695;28;20474;-91
2022/08/19 14:25:38;;;;;;;5.63;5.50;;;;;;;;;;5028129;28;20441;-89
2022/08/19 14:28:06;;;;;;;5.70;5.50;;;;;;;;;;5022486;28;20431;-89
2022/08/19 14:30:34;;;;;;;6.63;6.43;;;;;;;;;;5021358;28;20793;-88
2022/08/19 14:33:25;;;;;;;5.90;5.60;;;;;;;;;;5024522;28;20477;-91
2022/08/19 14:35:51;;;;;;;7.00;6.50;;;;;;;;;;5024667;28;20531;-90
2022/08/19 14:41:19;;;;;;;6.17;5.90;;;;;;;;;;5463155;23;20494;-92
2022/08/19 14:44:12;;;;;;;6.60;6.30;;;;;;;;;;5059051;23;21084;-92
2022/08/19 14:49:28;;;;;;;8.07;7.40;;;;;;;;;;5009635;28;20479;-92
2022/08/19 15:18:17;;;;;;;7.90;7.40;;;;;;;;;;5277238;23;20741;-93
2022/08/19 15:28:55;;;;;;;6.30;5.90;;;;;;;;;;5500258;23;20501;-91
2022/08/19 15:36:49;;;;;;;6.87;6.20;;;;;;;;;;5678520;23;20442;-89
2022/08/19 15:39:32;;;;;;;5.80;5.57;;;;;;;;;;4968544;28;20448;-90
2022/08/19 15:49:58;;;;;;;5.73;5.40;;;;;;;;;;5527711;23;20528;-92
2022/08/19 15:52:24;;;;;;;6.43;6.03;;;;;;;;;;4983457;28;20417;-91
2022/08/19 15:55:06;;;;;;;5.70;5.50;;;;;;;;;;4984807;28;21201;-93
2022/08/19 16:06:45;;;;;;;6.30;5.90;;;;;;;;;;4968296;29;20412;-92
2022/08/19 16:09:37;;;;;;;6.77;6.37;;;;;;;;;;4965351;29;20700;-95
2022/08/19 16:12:32;;;;;;;5.37;5.07;;;;;;;;;;4963409;28;20421;-93
2022/08/19 16:15:01;;;;;;;4.90;4.80;;;;;;;;;;5093488;23;20484;-96
2022/08/19 16:17:27;;;;;;;4.50;4.40;;;;;;;;;;4964592;28;20524;-88
2022/08/19 16:19:53;;;;;;;4.93;4.63;;;;;;;;;;4978239;28;20440;-92
2022/08/19 16:22:20;;;;;;;4.50;4.40;;;;;;;;;;4964226;28;20476;-93
2022/08/19 16:24:46;;;;;;;5.87;5.57;;;;;;;;;;4983525;28;20436;-93
2022/08/19 16:27:12;;;;;;;5.77;5.57;;;;;;;;;;4981202;28;20534;-93
2022/08/19 16:29:39;;;;;;;6.53;5.50;;;;;;;;;;4973292;28;20453;-91